sensor_id;sensor_type;location;lat;lon;timestamp;pressure;altitude;pressure_sealevel;temperature;humidity
61086;BME280;46967;48.876;2.136;2023-01-08T00:01:22;100319.03;;;10.19;90.04
61086;BME280;46967;48.876;2.136;2023-01-08T00:03:48;100315.69;;;10.15;90.16
61086;BME280;46967;48.876;2.136;2023-01-08T00:06:16;100301.69;;;10.20;90.21
61086;BME280;46967;48.876;2.136;2023-01-08T00:08:42;100301.59;;;10.23;90.03
61086;BME280;46967;48.876;2.136;2023-01-08T00:11:07;100302.69;;;10.17;90.56
61086;BME280;46967;48.876;2.136;2023-01-08T00:13:33;100305.28;;;10.17;90.48
61086;BME280;46967;48.876;2.136;2023-01-08T00:16:03;100298.38;;;10.16;90.93
61086;BME280;46967;48.876;2.136;2023-01-08T00:18:29;100287.06;;;10.19;90.92
61086;BME280;46967;48.876;2.136;2023-01-08T00:20:54;100298.38;;;10.16;91.26
61086;BME280;46967;48.876;2.136;2023-01-08T00:23:19;100303.47;;;10.19;91.11
61086;BME280;46967;48.876;2.136;2023-01-08T00:25:45;100296.63;;;10.16;91.19
61086;BME280;46967;48.876;2.136;2023-01-08T00:28:11;100292.38;;;10.15;91.30
61086;BME280;46967;48.876;2.136;2023-01-08T00:30:36;100294.03;;;10.16;91.29
61086;BME280;46967;48.876;2.136;2023-01-08T00:33:02;100291.63;;;10.12;91.43
61086;BME280;46967;48.876;2.136;2023-01-08T00:35:27;100302.91;;;10.11;91.50
61086;BME280;46967;48.876;2.136;2023-01-08T00:37:52;100297.66;;;10.12;91.20
61086;BME280;46967;48.876;2.136;2023-01-08T00:40:18;100288.34;;;10.07;91.46
61086;BME280;46967;48.876;2.136;2023-01-08T00:42:43;100292.75;;;10.05;91.60
61086;BME280;46967;48.876;2.136;2023-01-08T00:45:09;100278.25;;;9.99;91.98
61086;BME280;46967;48.876;2.136;2023-01-08T00:47:35;100280.66;;;10.04;91.65
61086;BME280;46967;48.876;2.136;2023-01-08T00:50:00;100278.06;;;10.04;91.65
61086;BME280;46967;48.876;2.136;2023-01-08T00:52:25;100277.25;;;10.03;91.48
61086;BME280;46967;48.876;2.136;2023-01-08T00:54:51;100266.66;;;10.09;91.19
61086;BME280;46967;48.876;2.136;2023-01-08T00:57:16;100273.81;;;10.03;91.55
61086;BME280;46967;48.876;2.136;2023-01-08T00:59:41;100263.22;;;10.09;91.28
61086;BME280;46967;48.876;2.136;2023-01-08T01:02:07;100256.50;;;10.03;91.33
61086;BME280;46967;48.876;2.136;2023-01-08T01:04:32;100256.50;;;10.03;90.67
61086;BME280;46967;48.876;2.136;2023-01-08T01:06:57;100272.09;;;10.02;90.76
61086;BME280;46967;48.876;2.136;2023-01-08T01:09:23;100264.94;;;10.08;89.83
61086;BME280;46967;48.876;2.136;2023-01-08T01:11:48;100257.22;;;10.07;90.14
61086;BME280;46967;48.876;2.136;2023-01-08T01:14:14;100256.50;;;10.03;90.48
61086;BME280;46967;48.876;2.136;2023-01-08T01:16:39;100253.25;;;9.98;90.79
61086;BME280;46967;48.876;2.136;2023-01-08T01:19:06;100242.88;;;9.98;90.71
61086;BME280;46967;48.876;2.136;2023-01-08T01:21:32;100248.00;;;10.00;90.16
61086;BME280;46967;48.876;2.136;2023-01-08T01:24:00;100248.22;;;9.93;90.50
61086;BME280;46967;48.876;2.136;2023-01-08T01:26:26;100246.97;;;10.04;89.96
61086;BME280;46967;48.876;2.136;2023-01-08T01:28:54;100244.84;;;9.91;90.51
61086;BME280;46967;48.876;2.136;2023-01-08T01:31:20;100248.16;;;9.95;89.83
61086;BME280;46967;48.876;2.136;2023-01-08T01:33:46;100257.75;;;9.93;89.93
61086;BME280;46967;48.876;2.136;2023-01-08T01:36:13;100258.06;;;9.84;90.37
61086;BME280;46967;48.876;2.136;2023-01-08T01:38:46;100264.88;;;9.86;90.12
61086;BME280;46967;48.876;2.136;2023-01-08T01:41:34;100255.31;;;9.88;89.98
61086;BME280;46967;48.876;2.136;2023-01-08T01:44:39;100270.31;;;9.78;90.60
61086;BME280;46967;48.876;2.136;2023-01-08T01:49:57;100270.41;;;9.77;89.65
61086;BME280;46967;48.876;2.136;2023-01-08T01:52:25;100268.81;;;9.73;89.97
61086;BME280;46967;48.876;2.136;2023-01-08T01:54:52;100278.00;;;9.82;89.63
61086;BME280;46967;48.876;2.136;2023-01-08T01:57:18;100276.31;;;9.81;89.41
61086;BME280;46967;48.876;2.136;2023-01-08T01:59:44;100280.88;;;9.74;89.64
61086;BME280;46967;48.876;2.136;2023-01-08T02:02:11;100274.63;;;9.79;89.11
61086;BME280;46967;48.876;2.136;2023-01-08T02:04:36;100276.31;;;9.81;89.17
61086;BME280;46967;48.876;2.136;2023-01-08T02:07:11;100291.44;;;9.68;89.92
61086;BME280;46967;48.876;2.136;2023-01-08T02:12:31;100289.78;;;9.65;89.09
61086;BME280;46967;48.876;2.136;2023-01-08T02:15:13;100280.97;;;9.71;88.67
61086;BME280;46967;48.876;2.136;2023-01-08T02:18:09;100277.31;;;9.76;88.46
61086;BME280;46967;48.876;2.136;2023-01-08T02:20:39;100282.53;;;9.75;88.51
61086;BME280;46967;48.876;2.136;2023-01-08T02:26:23;100278.22;;;9.75;88.48
61086;BME280;46967;48.876;2.136;2023-01-08T02:28:56;100271.44;;;9.71;88.22
61086;BME280;46967;48.876;2.136;2023-01-08T02:31:24;100289.44;;;9.76;88.29
61086;BME280;46967;48.876;2.136;2023-01-08T02:33:50;100281.88;;;9.70;87.85
61086;BME280;46967;48.876;2.136;2023-01-08T02:36:26;100274.09;;;9.70;87.84
61086;BME280;46967;48.876;2.136;2023-01-08T02:39:14;100280.81;;;9.75;87.64
61086;BME280;46967;48.876;2.136;2023-01-08T02:47:34;100273.66;;;9.57;89.52
61086;BME280;46967;48.876;2.136;2023-01-08T02:50:23;100275.09;;;9.66;89.18
61086;BME280;46967;48.876;2.136;2023-01-08T02:52:54;100274.28;;;9.64;89.19
61086;BME280;46967;48.876;2.136;2023-01-08T02:55:23;100272.06;;;9.53;89.52
61086;BME280;46967;48.876;2.136;2023-01-08T02:57:50;100270.00;;;9.63;89.13
61086;BME280;46967;48.876;2.136;2023-01-08T03:00:17;100257.00;;;9.64;88.99
61086;BME280;46967;48.876;2.136;2023-01-08T03:02:42;100265.69;;;9.63;89.38
61086;BME280;46967;48.876;2.136;2023-01-08T03:05:13;100271.06;;;9.57;89.89
61086;BME280;46967;48.876;2.136;2023-01-08T03:07:41;100266.63;;;9.60;89.87
61086;BME280;46967;48.876;2.136;2023-01-08T03:10:09;100266.56;;;9.62;89.86
61086;BME280;46967;48.876;2.136;2023-01-08T03:12:43;100256.31;;;9.59;90.06
61086;BME280;46967;48.876;2.136;2023-01-08T03:15:14;100251.59;;;9.70;89.77
61086;BME280;46967;48.876;2.136;2023-01-08T03:17:44;100257.75;;;9.68;90.00
61086;BME280;46967;48.876;2.136;2023-01-08T03:20:14;100251.88;;;9.63;90.44
61086;BME280;46967;48.876;2.136;2023-01-08T03:22:43;100242.16;;;9.69;90.13
61086;BME280;46967;48.876;2.136;2023-01-08T03:25:12;100253.53;;;9.65;90.40
61086;BME280;46967;48.876;2.136;2023-01-08T03:27:42;100251.88;;;9.63;90.66
61086;BME280;46967;48.876;2.136;2023-01-08T03:30:10;100244.84;;;9.66;90.54
61086;BME280;46967;48.876;2.136;2023-01-08T03:32:38;100235.38;;;9.65;90.41
61086;BME280;46967;48.876;2.136;2023-01-08T03:35:08;100250.72;;;9.71;90.34
61086;BME280;46967;48.876;2.136;2023-01-08T03:37:38;100251.66;;;9.69;90.36
61086;BME280;46967;48.876;2.136;2023-01-08T03:42:36;100235.44;;;9.64;90.78
61086;BME280;46967;48.876;2.136;2023-01-08T03:45:02;100239.72;;;9.65;90.47
61086;BME280;46967;48.876;2.136;2023-01-08T03:47:28;100241.50;;;9.63;90.45
61086;BME280;46967;48.876;2.136;2023-01-08T03:50:00;100222.31;;;9.68;90.10
61086;BME280;46967;48.876;2.136;2023-01-08T03:52:30;100230.03;;;9.70;90.16
61086;BME280;46967;48.876;2.136;2023-01-08T03:54:56;100224.06;;;9.68;90.00
61086;BME280;46967;48.876;2.136;2023-01-08T03:57:22;100229.00;;;9.75;89.52
61086;BME280;46967;48.876;2.136;2023-01-08T03:59:48;100217.09;;;9.70;90.19
61086;BME280;46967;48.876;2.136;2023-01-08T04:02:13;100221.31;;;9.72;89.93
61086;BME280;46967;48.876;2.136;2023-01-08T04:04:39;100210.41;;;9.63;90.86
61086;BME280;46967;48.876;2.136;2023-01-08T04:07:05;100210.47;;;9.61;90.67
61086;BME280;46967;48.876;2.136;2023-01-08T04:09:31;100218.09;;;9.66;90.12
61086;BME280;46967;48.876;2.136;2023-01-08T04:11:56;100205.88;;;9.69;89.92
61086;BME280;46967;48.876;2.136;2023-01-08T04:14:21;100198.00;;;9.72;89.71
61086;BME280;46967;48.876;2.136;2023-01-08T04:16:47;100194.53;;;9.72;89.85
61086;BME280;46967;48.876;2.136;2023-01-08T04:19:13;100190.22;;;9.72;89.66
61086;BME280;46967;48.876;2.136;2023-01-08T04:21:38;100188.53;;;9.71;89.42
61086;BME280;46967;48.876;2.136;2023-01-08T04:24:04;100180.13;;;9.65;89.57
61086;BME280;46967;48.876;2.136;2023-01-08T04:26:30;100174.78;;;9.69;89.45
61086;BME280;46967;48.876;2.136;2023-01-08T04:28:56;100166.44;;;9.61;90.11
61086;BME280;46967;48.876;2.136;2023-01-08T04:31:21;100164.13;;;9.53;90.72
61086;BME280;46967;48.876;2.136;2023-01-08T04:33:47;100166.31;;;9.64;90.32
61086;BME280;46967;48.876;2.136;2023-01-08T04:36:12;100153.09;;;9.72;89.75
61086;BME280;46967;48.876;2.136;2023-01-08T04:38:38;100150.59;;;9.69;90.26
61086;BME280;46967;48.876;2.136;2023-01-08T04:41:03;100159.47;;;9.63;91.99
61086;BME280;46967;48.876;2.136;2023-01-08T04:43:29;100160.50;;;9.57;93.06
61086;BME280;46967;48.876;2.136;2023-01-08T04:45:59;100159.00;;;9.52;94.48
61086;BME280;46967;48.876;2.136;2023-01-08T04:48:25;100164.25;;;9.50;94.60
61086;BME280;46967;48.876;2.136;2023-01-08T04:50:50;100169.78;;;9.39;94.95
61086;BME280;46967;48.876;2.136;2023-01-08T04:53:15;100160.31;;;9.38;95.18
61086;BME280;46967;48.876;2.136;2023-01-08T04:55:41;100150.00;;;9.37;94.99
61086;BME280;46967;48.876;2.136;2023-01-08T04:58:06;100142.34;;;9.34;95.05
61086;BME280;46967;48.876;2.136;2023-01-08T05:00:32;100144.47;;;9.22;95.30
61086;BME280;46967;48.876;2.136;2023-01-08T05:02:57;100138.50;;;9.20;95.01
61086;BME280;46967;48.876;2.136;2023-01-08T05:05:22;100137.72;;;9.18;94.88
61086;BME280;46967;48.876;2.136;2023-01-08T05:07:48;100145.44;;;9.20;94.85
61086;BME280;46967;48.876;2.136;2023-01-08T05:10:13;100140.38;;;9.17;95.17
61086;BME280;46967;48.876;2.136;2023-01-08T05:12:38;100140.38;;;9.17;94.95
61086;BME280;46967;48.876;2.136;2023-01-08T05:15:04;100138.50;;;9.20;94.96
61086;BME280;46967;48.876;2.136;2023-01-08T05:17:29;100134.38;;;9.15;95.07
61086;BME280;46967;48.876;2.136;2023-01-08T05:19:55;100126.41;;;9.21;94.75
61086;BME280;46967;48.876;2.136;2023-01-08T05:22:20;100146.75;;;9.32;94.25
61086;BME280;46967;48.876;2.136;2023-01-08T05:24:45;100166.25;;;9.17;96.58
61086;BME280;46967;48.876;2.136;2023-01-08T05:27:11;100200.84;;;9.14;98.00
61086;BME280;46967;48.876;2.136;2023-01-08T05:29:36;100208.13;;;8.76;90.45
61086;BME280;46967;48.876;2.136;2023-01-08T05:32:01;100214.63;;;8.61;88.52
61086;BME280;46967;48.876;2.136;2023-01-08T05:34:27;100202.06;;;8.49;87.72
61086;BME280;46967;48.876;2.136;2023-01-08T05:36:52;100191.94;;;8.41;87.19
61086;BME280;46967;48.876;2.136;2023-01-08T05:39:17;100186.25;;;8.30;87.17
61086;BME280;46967;48.876;2.136;2023-01-08T05:41:43;100163.06;;;8.27;89.46
61086;BME280;46967;48.876;2.136;2023-01-08T05:44:09;100167.66;;;8.17;89.51
61086;BME280;46967;48.876;2.136;2023-01-08T05:46:34;100178.00;;;8.17;88.84
61086;BME280;46967;48.876;2.136;2023-01-08T05:48:59;100171.97;;;8.16;88.29
61086;BME280;46967;48.876;2.136;2023-01-08T05:51:25;100172.94;;;8.14;89.32
61086;BME280;46967;48.876;2.136;2023-01-08T05:53:50;100163.47;;;8.13;89.04
61086;BME280;46967;48.876;2.136;2023-01-08T05:56:15;100155.09;;;8.05;87.58
61086;BME280;46967;48.876;2.136;2023-01-08T05:58:41;100160.19;;;8.08;87.10
61086;BME280;46967;48.876;2.136;2023-01-08T06:01:11;100150.94;;;7.99;86.13
61086;BME280;46967;48.876;2.136;2023-01-08T06:03:37;100154.41;;;8.00;85.50
61086;BME280;46967;48.876;2.136;2023-01-08T06:06:04;100156.19;;;7.96;87.41
61086;BME280;46967;48.876;2.136;2023-01-08T06:08:31;100158.75;;;7.97;86.74
61086;BME280;46967;48.876;2.136;2023-01-08T06:11:00;100166.84;;;7.87;86.50
61086;BME280;46967;48.876;2.136;2023-01-08T06:13:27;100165.00;;;7.90;86.03
61086;BME280;46967;48.876;2.136;2023-01-08T06:15:52;100177.91;;;7.90;86.55
61086;BME280;46967;48.876;2.136;2023-01-08T06:18:18;100172.78;;;7.89;86.88
61086;BME280;46967;48.876;2.136;2023-01-08T06:20:43;100171.13;;;7.86;85.91
61086;BME280;46967;48.876;2.136;2023-01-08T06:23:08;100179.97;;;7.79;86.51
61086;BME280;46967;48.876;2.136;2023-01-08T06:25:35;100176.50;;;7.78;86.55
61086;BME280;46967;48.876;2.136;2023-01-08T06:28:00;100172.38;;;7.73;87.32
61086;BME280;46967;48.876;2.136;2023-01-08T06:30:26;100172.47;;;7.70;88.17
61086;BME280;46967;48.876;2.136;2023-01-08T06:32:58;100176.59;;;7.75;87.80
61086;BME280;46967;48.876;2.136;2023-01-08T06:35:24;100184.66;;;7.65;88.55
61086;BME280;46967;48.876;2.136;2023-01-08T06:37:50;100190.84;;;7.59;89.14
61086;BME280;46967;48.876;2.136;2023-01-08T06:40:15;100195.03;;;7.63;88.80
61086;BME280;46967;48.876;2.136;2023-01-08T06:42:40;100201.88;;;7.64;89.21
61086;BME280;46967;48.876;2.136;2023-01-08T06:45:07;100193.41;;;7.59;89.46
61086;BME280;46967;48.876;2.136;2023-01-08T06:47:33;100198.50;;;7.62;89.79
61086;BME280;46967;48.876;2.136;2023-01-08T06:49:58;100190.72;;;7.64;90.00
61086;BME280;46967;48.876;2.136;2023-01-08T06:52:24;100194.13;;;7.64;90.42
61086;BME280;46967;48.876;2.136;2023-01-08T06:54:50;100194.97;;;7.66;90.77
61086;BME280;46967;48.876;2.136;2023-01-08T06:57:15;100188.97;;;7.64;91.54
61086;BME280;46967;48.876;2.136;2023-01-08T06:59:41;100191.53;;;7.64;91.74
61086;BME280;46967;48.876;2.136;2023-01-08T07:02:14;100194.03;;;7.67;91.89
61086;BME280;46967;48.876;2.136;2023-01-08T07:04:40;100187.16;;;7.68;92.30
61086;BME280;46967;48.876;2.136;2023-01-08T07:07:05;100184.63;;;7.66;92.50
61086;BME280;46967;48.876;2.136;2023-01-08T07:09:33;100181.97;;;7.69;92.60
61086;BME280;46967;48.876;2.136;2023-01-08T07:11:58;100181.97;;;7.69;92.78
61086;BME280;46967;48.876;2.136;2023-01-08T07:14:23;100176.88;;;7.66;92.95
61086;BME280;46967;48.876;2.136;2023-01-08T07:16:49;100177.03;;;7.60;93.74
61086;BME280;46967;48.876;2.136;2023-01-08T07:19:14;100175.25;;;7.62;94.29
61086;BME280;46967;48.876;2.136;2023-01-08T07:21:39;100165.03;;;7.57;94.86
61086;BME280;46967;48.876;2.136;2023-01-08T07:24:05;100165.09;;;7.56;95.23
61086;BME280;46967;48.876;2.136;2023-01-08T07:26:31;100165.97;;;7.55;95.37
61086;BME280;46967;48.876;2.136;2023-01-08T07:28:57;100170.03;;;7.64;95.65
61086;BME280;46967;48.876;2.136;2023-01-08T07:31:23;100160.81;;;7.55;96.10
61086;BME280;46967;48.876;2.136;2023-01-08T07:33:48;100162.66;;;7.50;96.97
61086;BME280;46967;48.876;2.136;2023-01-08T07:36:14;100157.53;;;7.48;97.01
61086;BME280;46967;48.876;2.136;2023-01-08T07:38:40;100156.66;;;7.49;97.27
61086;BME280;46967;48.876;2.136;2023-01-08T07:41:06;100146.31;;;7.51;97.53
61086;BME280;46967;48.876;2.136;2023-01-08T07:43:31;100145.31;;;7.55;97.35
61086;BME280;46967;48.876;2.136;2023-01-08T07:45:56;100140.09;;;7.56;97.50
61086;BME280;46967;48.876;2.136;2023-01-08T07:48:22;100140.09;;;7.56;97.59
61086;BME280;46967;48.876;2.136;2023-01-08T07:50:47;100137.56;;;7.55;97.63
61086;BME280;46967;48.876;2.136;2023-01-08T07:53:13;100143.59;;;7.55;97.90
61086;BME280;46967;48.876;2.136;2023-01-08T07:55:41;100147.13;;;7.51;98.47
61086;BME280;46967;48.876;2.136;2023-01-08T07:58:11;100144.22;;;7.64;97.73
61086;BME280;46967;48.876;2.136;2023-01-08T08:00:37;100150.31;;;7.61;97.71
61086;BME280;46967;48.876;2.136;2023-01-08T08:03:04;100144.25;;;7.62;97.91
61086;BME280;46967;48.876;2.136;2023-01-08T08:05:30;100139.13;;;7.60;97.93
61086;BME280;46967;48.876;2.136;2023-01-08T08:07:55;100148.50;;;7.65;97.95
61086;BME280;46967;48.876;2.136;2023-01-08T08:10:21;100145.94;;;7.65;98.04
61086;BME280;46967;48.876;2.136;2023-01-08T08:12:46;100133.88;;;7.64;98.17
61086;BME280;46967;48.876;2.136;2023-01-08T08:15:11;100138.97;;;7.67;98.04
61086;BME280;46967;48.876;2.136;2023-01-08T08:17:37;100133.75;;;7.68;97.97
61086;BME280;46967;48.876;2.136;2023-01-08T08:20:02;100129.59;;;7.62;98.34
61086;BME280;46967;48.876;2.136;2023-01-08T08:22:27;100119.94;;;7.71;97.90
61086;BME280;46967;48.876;2.136;2023-01-08T08:24:53;100124.69;;;7.53;99.37
61086;BME280;46967;48.876;2.136;2023-01-08T08:27:18;100121.97;;;7.58;99.24
61086;BME280;46967;48.876;2.136;2023-01-08T08:29:43;100113.31;;;7.60;99.15
61086;BME280;46967;48.876;2.136;2023-01-08T08:32:09;100126.00;;;7.68;98.74
61086;BME280;46967;48.876;2.136;2023-01-08T08:34:34;100117.34;;;7.71;98.74
61086;BME280;46967;48.876;2.136;2023-01-08T08:36:59;100112.84;;;7.77;98.50
61086;BME280;46967;48.876;2.136;2023-01-08T08:39:25;100104.34;;;7.72;98.87
61086;BME280;46967;48.876;2.136;2023-01-08T08:41:50;100108.50;;;7.78;98.59
61086;BME280;46967;48.876;2.136;2023-01-08T08:44:15;100105.66;;;7.87;98.61
61086;BME280;46967;48.876;2.136;2023-01-08T08:46:41;100091.94;;;7.85;98.40
61086;BME280;46967;48.876;2.136;2023-01-08T08:49:06;100091.59;;;7.96;97.90
61086;BME280;46967;48.876;2.136;2023-01-08T08:51:32;100093.31;;;7.97;97.80
61086;BME280;46967;48.876;2.136;2023-01-08T08:53:57;100104.38;;;8.01;97.68
61086;BME280;46967;48.876;2.136;2023-01-08T08:56:22;100094.00;;;8.02;97.38
61086;BME280;46967;48.876;2.136;2023-01-08T08:58:48;100085.31;;;8.05;97.06
61086;BME280;46967;48.876;2.136;2023-01-08T09:01:14;100089.44;;;8.10;96.52
61086;BME280;46967;48.876;2.136;2023-01-08T09:03:40;100089.56;;;8.07;97.10
61086;BME280;46967;48.876;2.136;2023-01-08T09:06:06;100086.75;;;8.13;96.06
61086;BME280;46967;48.876;2.136;2023-01-08T09:08:36;100083.81;;;8.26;95.63
61086;BME280;46967;48.876;2.136;2023-01-08T09:11:01;100089.72;;;8.29;95.05
61086;BME280;46967;48.876;2.136;2023-01-08T09:13:27;100082.81;;;8.30;94.99
61086;BME280;46967;48.876;2.136;2023-01-08T09:15:52;100089.47;;;8.37;94.95
61086;BME280;46967;48.876;2.136;2023-01-08T09:18:18;100090.97;;;8.46;94.54
61086;BME280;46967;48.876;2.136;2023-01-08T09:20:43;100090.91;;;8.47;94.32
61086;BME280;46967;48.876;2.136;2023-01-08T09:23:08;100088.50;;;8.41;93.90
61086;BME280;46967;48.876;2.136;2023-01-08T09:25:34;100087.47;;;8.47;94.00
61086;BME280;46967;48.876;2.136;2023-01-08T09:28:04;100082.44;;;8.42;94.20
61086;BME280;46967;48.876;2.136;2023-01-08T09:30:30;100084.00;;;8.48;94.27
61086;BME280;46967;48.876;2.136;2023-01-08T09:33:00;100080.88;;;8.37;94.00
61086;BME280;46967;48.876;2.136;2023-01-08T09:35:26;100087.72;;;8.39;93.89
61086;BME280;46967;48.876;2.136;2023-01-08T09:37:53;100084.09;;;8.45;92.99
61086;BME280;46967;48.876;2.136;2023-01-08T09:40:24;100093.59;;;8.44;92.58
61086;BME280;46967;48.876;2.136;2023-01-08T09:42:56;100099.41;;;8.51;92.60
61086;BME280;46967;48.876;2.136;2023-01-08T09:45:27;100096.88;;;8.49;92.32
61086;BME280;46967;48.876;2.136;2023-01-08T09:47:56;100100.63;;;8.39;91.83
61086;BME280;46967;48.876;2.136;2023-01-08T09:50:25;100104.78;;;8.45;91.44
61086;BME280;46967;48.876;2.136;2023-01-08T09:52:51;100100.09;;;8.56;90.66
61086;BME280;46967;48.876;2.136;2023-01-08T09:55:17;100107.72;;;8.61;90.76
61086;BME280;46967;48.876;2.136;2023-01-08T09:57:43;100100.88;;;8.60;91.25
61086;BME280;46967;48.876;2.136;2023-01-08T10:00:29;100110.06;;;8.68;91.10
61086;BME280;46967;48.876;2.136;2023-01-08T10:02:55;100108.34;;;8.67;91.34
61086;BME280;46967;48.876;2.136;2023-01-08T10:05:22;100103.94;;;8.71;91.27
61086;BME280;46967;48.876;2.136;2023-01-08T10:07:50;100096.09;;;8.74;90.97
61086;BME280;46967;48.876;2.136;2023-01-08T10:10:27;100097.56;;;8.81;90.52
61086;BME280;46967;48.876;2.136;2023-01-08T10:12:53;100103.34;;;8.88;90.25
61086;BME280;46967;48.876;2.136;2023-01-08T10:15:20;100102.31;;;8.94;89.32
61086;BME280;46967;48.876;2.136;2023-01-08T10:18:06;100092.84;;;8.93;89.19
61086;BME280;46967;48.876;2.136;2023-01-08T10:20:33;100097.28;;;8.89;89.41
61086;BME280;46967;48.876;2.136;2023-01-08T10:23:14;100086.22;;;8.85;90.32
61086;BME280;46967;48.876;2.136;2023-01-08T10:25:53;100081.63;;;8.94;89.65
61086;BME280;46967;48.876;2.136;2023-01-08T10:28:27;100081.34;;;9.01;88.26
61086;BME280;46967;48.876;2.136;2023-01-08T10:30:58;100083.78;;;9.06;88.22
61086;BME280;46967;48.876;2.136;2023-01-08T10:33:47;100078.97;;;9.20;87.72
61086;BME280;46967;48.876;2.136;2023-01-08T10:36:18;100067.19;;;9.35;87.79
61086;BME280;46967;48.876;2.136;2023-01-08T10:38:55;100074.97;;;9.35;87.59
61086;BME280;46967;48.876;2.136;2023-01-08T10:41:22;100070.75;;;9.33;87.64
61086;BME280;46967;48.876;2.136;2023-01-08T10:43:51;100060.25;;;9.37;86.77
61086;BME280;46967;48.876;2.136;2023-01-08T10:46:30;100061.28;;;9.32;86.88
61086;BME280;46967;48.876;2.136;2023-01-08T10:49:00;100059.16;;;9.43;86.19
61086;BME280;46967;48.876;2.136;2023-01-08T10:51:29;100049.69;;;9.42;85.53
61086;BME280;46967;48.876;2.136;2023-01-08T10:53:57;100045.44;;;9.41;85.80
61086;BME280;46967;48.876;2.136;2023-01-08T10:56:26;100050.94;;;9.55;85.29
61086;BME280;46967;48.876;2.136;2023-01-08T10:58:52;100043.94;;;9.57;85.30
61086;BME280;46967;48.876;2.136;2023-01-08T11:01:25;100047.19;;;9.63;84.49
61086;BME280;46967;48.876;2.136;2023-01-08T11:03:55;100043.03;;;9.58;84.58
61086;BME280;46967;48.876;2.136;2023-01-08T11:06:24;100048.84;;;9.65;85.35
61086;BME280;46967;48.876;2.136;2023-01-08T11:09:00;100033.66;;;9.78;83.32
61086;BME280;46967;48.876;2.136;2023-01-08T11:11:36;100032.78;;;10.01;82.57
61086;BME280;46967;48.876;2.136;2023-01-08T11:14:04;100017.56;;;10.14;83.48
61086;BME280;46967;48.876;2.136;2023-01-08T11:16:40;100017.00;;;10.28;82.01
61086;BME280;46967;48.876;2.136;2023-01-08T11:19:26;100008.25;;;10.30;80.63
61086;BME280;46967;48.876;2.136;2023-01-08T11:21:54;100013.69;;;10.24;80.42
61086;BME280;46967;48.876;2.136;2023-01-08T11:24:32;99997.41;;;10.43;80.54
61086;BME280;46967;48.876;2.136;2023-01-08T11:27:00;99994.69;;;10.46;79.61
61086;BME280;46967;48.876;2.136;2023-01-08T11:32:33;99986.72;;;10.50;80.02
61086;BME280;46967;48.876;2.136;2023-01-08T11:35:08;99976.25;;;10.73;79.19
61086;BME280;46967;48.876;2.136;2023-01-08T11:37:39;99969.28;;;10.73;78.16
61086;BME280;46967;48.876;2.136;2023-01-08T11:40:27;99971.81;;;10.75;79.14
61086;BME280;46967;48.876;2.136;2023-01-08T11:49:15;99961.84;;;11.05;77.54
61086;BME280;46967;48.876;2.136;2023-01-08T11:52:14;99947.47;;;10.98;78.93
61086;BME280;46967;48.876;2.136;2023-01-08T11:57:32;99938.78;;;10.78;77.63
61086;BME280;46967;48.876;2.136;2023-01-08T12:02:55;99924.75;;;10.63;79.74
61086;BME280;46967;48.876;2.136;2023-01-08T12:21:12;99869.72;;;10.36;80.79
61086;BME280;46967;48.876;2.136;2023-01-08T12:26:58;99830.91;;;10.54;79.07
61086;BME280;46967;48.876;2.136;2023-01-08T12:29:51;99830.56;;;10.80;78.15
61086;BME280;46967;48.876;2.136;2023-01-08T12:35:01;99845.00;;;10.67;78.35
61086;BME280;46967;48.876;2.136;2023-01-08T12:37:50;99844.16;;;10.66;78.51
61086;BME280;46967;48.876;2.136;2023-01-08T12:40:19;99849.44;;;10.65;78.54
61086;BME280;46967;48.876;2.136;2023-01-08T12:42:46;99842.00;;;10.57;79.76
61086;BME280;46967;48.876;2.136;2023-01-08T12:45:39;99822.50;;;10.67;79.47
61086;BME280;46967;48.876;2.136;2023-01-08T12:48:09;99820.41;;;10.76;79.51
61086;BME280;46967;48.876;2.136;2023-01-08T13:01:36;99792.56;;;10.60;78.16
61086;BME280;46967;48.876;2.136;2023-01-08T13:04:07;99782.59;;;10.70;78.91
61086;BME280;46967;48.876;2.136;2023-01-08T13:06:33;99773.47;;;10.80;78.21
61086;BME280;46967;48.876;2.136;2023-01-08T13:08:59;99775.22;;;10.80;78.21
61086;BME280;46967;48.876;2.136;2023-01-08T13:11:26;99759.91;;;10.74;77.85
61086;BME280;46967;48.876;2.136;2023-01-08T13:14:04;99764.97;;;10.77;78.62
61086;BME280;46967;48.876;2.136;2023-01-08T13:16:34;99759.09;;;10.73;78.74
61086;BME280;46967;48.876;2.136;2023-01-08T13:19:02;99756.22;;;10.79;78.57
61086;BME280;46967;48.876;2.136;2023-01-08T13:21:37;99744.53;;;10.71;79.21
61086;BME280;46967;48.876;2.136;2023-01-08T13:26:31;99741.28;;;10.65;79.54
61086;BME280;46967;48.876;2.136;2023-01-08T13:31:47;99736.22;;;10.62;80.12
61086;BME280;46967;48.876;2.136;2023-01-08T13:34:39;99718.06;;;10.62;79.95
61086;BME280;46967;48.876;2.136;2023-01-08T13:37:06;99727.63;;;10.62;80.20
61086;BME280;46967;48.876;2.136;2023-01-08T13:39:37;99718.06;;;10.62;79.30
61086;BME280;46967;48.876;2.136;2023-01-08T13:42:25;99713.13;;;10.75;79.23
61086;BME280;46967;48.876;2.136;2023-01-08T13:44:59;99694.84;;;10.96;78.97
61086;BME280;46967;48.876;2.136;2023-01-08T13:47:34;99693.28;;;11.11;77.35
61086;BME280;46967;48.876;2.136;2023-01-08T13:50:02;99695.56;;;10.99;76.92
61086;BME280;46967;48.876;2.136;2023-01-08T13:52:32;99714.31;;;10.87;76.80
61086;BME280;46967;48.876;2.136;2023-01-08T13:55:12;99709.19;;;10.85;76.98
61086;BME280;46967;48.876;2.136;2023-01-08T13:57:42;99700.72;;;10.82;77.45
61086;BME280;46967;48.876;2.136;2023-01-08T14:00:17;99687.13;;;10.77;78.09
61086;BME280;46967;48.876;2.136;2023-01-08T14:02:45;99681.09;;;10.76;76.83
61086;BME280;46967;48.876;2.136;2023-01-08T14:05:28;99666.69;;;10.71;77.34
61086;BME280;46967;48.876;2.136;2023-01-08T14:07:54;99666.56;;;10.72;76.43
61086;BME280;46967;48.876;2.136;2023-01-08T14:10:20;99670.31;;;10.66;76.23
61086;BME280;46967;48.876;2.136;2023-01-08T14:12:46;99668.41;;;10.70;77.02
61086;BME280;46967;48.876;2.136;2023-01-08T14:17:44;99674.53;;;10.69;77.25
61086;BME280;46967;48.876;2.136;2023-01-08T14:20:10;99664.44;;;10.63;78.46